Time;durP1;ratioP1;P1;durP2;ratioP2;P2;SDS_P1;SDS_P2;PMS_P1;PMS_P2;Temp;Humidity;BMP_temperature;BMP_pressure;BME280_temperature;BME280_humidity;BME280_pressure;Samples;Min_cycle;Max_cycle;Signal;HPM_P1;HPM_P2
2021/08/24 00:01:25;;;;;;;6.80;4.40;;;;;;;28.71;37.58;100920.38;111978;1218;61107;-86
2021/08/24 00:03:51;;;;;;;6.60;4.20;;;;;;;28.72;37.70;100919.09;112001;1219;64773;-87
2021/08/24 00:06:20;;;;;;;5.90;4.10;;;;;;;28.72;37.73;100925.20;111970;1218;60962;-86
2021/08/24 00:08:56;;;;;;;5.00;3.90;;;;;;;28.71;37.81;100920.78;111912;1219;60995;-87
2021/08/24 00:11:24;;;;;;;5.40;4.00;;;;;;;28.71;37.85;100921.11;112144;1218;60876;-88
2021/08/24 00:13:53;;;;;;;;;;;;;;;28.71;37.63;100924.23;112469;1216;63559;-86
2021/08/24 00:16:25;;;;;;;8.50;4.30;;;;;;;28.69;37.65;100923.20;112137;1225;65638;-86
2021/08/24 00:18:59;;;;;;;6.90;4.60;;;;;;;28.69;37.55;100924.60;112402;1215;60950;-90
2021/08/24 00:21:45;;;;;;;6.30;4.30;;;;;;;28.69;37.79;100924.97;112049;1216;60964;-88
2021/08/24 00:24:17;;;;;;;5.60;4.30;;;;;;;28.69;37.69;100926.12;112443;1216;63466;-93
2021/08/24 00:26:43;;;;;;;5.50;4.10;;;;;;;28.69;37.93;100926.95;112170;1224;66913;-88
2021/08/24 00:29:32;;;;;;;8.40;4.10;;;;;;;28.69;37.94;100924.98;112451;1217;61043;-86
2021/08/24 00:32:01;;;;;;;5.50;4.20;;;;;;;28.68;37.84;100922.69;112221;1225;61007;-86
2021/08/24 00:34:50;;;;;;;;;;;;;;;28.69;37.72;100922.46;112483;1216;64995;-88
2021/08/24 00:37:16;;;;;;;5.10;3.90;;;;;;;28.67;37.96;100916.37;111827;1219;65966;-88
2021/08/24 00:39:45;;;;;;;6.20;4.10;;;;;;;28.67;37.75;100914.84;111729;1221;61121;-89
2021/08/24 00:42:24;;;;;;;6.00;4.30;;;;;;;28.67;37.91;100919.94;111712;1227;61095;-85
2021/08/24 00:44:53;;;;;;;6.30;4.40;;;;;;;28.67;37.97;100919.05;111759;1227;64942;-86
2021/08/24 00:47:40;;;;;;;5.10;4.10;;;;;;;28.67;37.83;100918.11;111682;1221;65846;-89
2021/08/24 00:50:32;;;;;;;5.40;4.00;;;;;;;28.67;37.95;100915.99;111782;1227;60979;-88
2021/08/24 00:53:12;;;;;;;5.70;4.20;;;;;;;28.66;38.09;100914.40;111777;1227;61165;-85
2021/08/24 00:55:51;;;;;;;6.30;4.30;;;;;;;28.66;38.13;100912.77;111722;1221;63649;-89
2021/08/24 00:58:26;;;;;;;6.60;4.10;;;;;;;28.66;38.01;100909.33;111774;1221;65793;-85
2021/08/24 01:01:14;;;;;;;7.30;4.40;;;;;;;28.66;38.15;100911.30;111784;1227;61301;-84
2021/08/24 01:03:41;;;;;;;5.60;4.20;;;;;;;28.67;38.15;100911.08;111649;1228;60982;-84
2021/08/24 01:06:29;;;;;;;6.50;4.40;;;;;;;28.67;38.11;100910.37;111705;1227;64742;-86
2021/08/24 01:09:26;;;;;;;5.90;3.90;;;;;;;28.66;38.11;100910.80;111671;1227;65854;-89
2021/08/24 01:12:27;;;;;;;5.90;4.30;;;;;;;28.65;38.12;100908.52;111813;1219;61115;-89
2021/08/24 01:15:50;;;;;;;5.50;3.90;;;;;;;28.65;37.92;100907.42;111624;1227;60986;-83
2021/08/24 01:18:30;;;;;;;5.40;4.00;;;;;;;28.65;38.31;100905.48;111833;1219;63654;-87
2021/08/24 01:21:54;;;;;;;5.80;4.10;;;;;;;28.66;38.24;100900.71;111832;1227;65589;-85
2021/08/24 01:24:25;;;;;;;5.90;3.80;;;;;;;28.65;38.30;100900.98;111506;1226;61085;-90
2021/08/24 01:27:10;;;;;;;7.50;4.00;;;;;;;28.65;38.30;100905.11;111613;1222;61020;-86
2021/08/24 01:30:06;;;;;;;5.80;4.50;;;;;;;28.65;38.37;100906.94;111636;1224;63778;-86
2021/08/24 01:33:11;;;;;;;5.90;4.60;;;;;;;28.65;38.42;100907.67;111714;1229;65935;-86
2021/08/24 01:36:26;;;;;;;;;;;;;;;;;;;;;
2021/08/24 01:39:08;;;;;;;7.40;4.70;;;;;;;28.65;38.33;100909.14;111190;1225;61073;-83
2021/08/24 01:41:49;;;;;;;5.80;4.30;;;;;;;28.64;38.35;100909.52;111164;1227;63508;-86
2021/08/24 01:44:21;;;;;;;7.20;4.00;;;;;;;28.65;38.32;100907.86;111179;1227;66739;-86
2021/08/24 01:47:06;;;;;;;6.70;4.50;;;;;;;28.65;38.42;100907.65;111149;1227;61512;-84
2021/08/24 01:49:43;;;;;;;7.10;4.30;;;;;;;28.65;38.40;100906.96;111053;1225;61018;-95
2021/08/24 01:52:12;;;;;;;6.10;4.40;;;;;;;28.64;38.41;100907.70;111242;1227;64791;-84
2021/08/24 01:54:57;;;;;;;4.80;3.80;;;;;;;28.64;38.45;100904.10;111354;1231;66814;-90
2021/08/24 01:57:49;;;;;;;5.60;4.40;;;;;;;28.64;38.38;100899.05;111113;1231;61024;-86
2021/08/24 02:00:26;;;;;;;5.30;4.00;;;;;;;28.64;38.56;100897.61;111488;1220;60985;-85
2021/08/24 02:03:05;;;;;;;7.70;4.40;;;;;;;28.63;38.57;100896.92;111757;1227;64752;-85
2021/08/24 02:05:57;;;;;;;7.40;4.10;;;;;;;28.64;38.56;100895.05;111905;1220;66814;-86
2021/08/24 02:08:28;;;;;;;7.90;4.40;;;;;;;28.64;38.66;100896.55;112451;1216;60986;-88
2021/08/24 02:10:56;;;;;;;6.00;4.30;;;;;;;28.64;38.54;100894.39;112401;1216;61035;-87
2021/08/24 02:13:37;;;;;;;6.20;4.00;;;;;;;28.63;38.46;100893.32;112781;1218;63957;-87
2021/08/24 02:16:07;;;;;;;5.50;4.40;;;;;;;28.63;38.53;100890.23;112954;1210;65994;-84
2021/08/24 02:18:36;;;;;;;5.80;4.40;;;;;;;28.63;38.44;100890.45;112986;1210;60933;-88
2021/08/24 02:21:12;;;;;;;6.50;4.30;;;;;;;28.63;38.65;100889.36;112993;1218;60963;-88
2021/08/24 02:23:40;;;;;;;5.90;4.00;;;;;;;28.63;38.66;100888.66;112874;1213;63518;-87
2021/08/24 02:26:07;;;;;;;6.00;4.30;;;;;;;28.63;38.61;100888.30;112972;1217;65670;-85
2021/08/24 02:28:40;;;;;;;5.20;3.90;;;;;;;28.62;38.64;100889.23;112979;1210;60959;-86
2021/08/24 02:31:27;;;;;;;4.80;3.90;;;;;;;28.62;38.74;100885.64;112941;1210;61039;-85
2021/08/24 02:34:17;;;;;;;6.70;4.20;;;;;;;28.62;38.79;100882.92;112875;1211;63716;-85
2021/08/24 02:36:50;;;;;;;7.40;3.90;;;;;;;28.62;38.86;100881.35;112736;1210;66100;-83
2021/08/24 02:39:21;;;;;;;6.90;4.60;;;;;;;28.62;38.89;100878.77;112554;1212;60975;-83
2021/08/24 02:42:30;;;;;;;6.50;4.40;;;;;;;28.62;38.75;100879.48;112802;1211;61445;-86
2021/08/24 02:45:04;;;;;;;7.40;4.50;;;;;;;28.62;38.89;100874.09;112787;1220;63733;-86
2021/08/24 02:47:37;;;;;;;6.10;4.10;;;;;;;28.62;38.85;100868.86;112800;1211;65781;-86
2021/08/24 02:50:04;;;;;;;5.60;4.10;;;;;;;28.62;38.78;100868.80;112746;1211;61015;-82
2021/08/24 02:52:30;;;;;;;5.80;4.00;;;;;;;28.62;38.92;100870.09;113186;1218;60971;-83
2021/08/24 02:54:56;;;;;;;6.30;4.50;;;;;;;28.63;38.70;100868.39;112932;1213;58695;-84
2021/08/24 02:57:21;;;;;;;5.50;3.80;;;;;;;28.63;38.80;100871.25;112753;1210;61026;-86
2021/08/24 02:59:47;;;;;;;5.70;4.10;;;;;;;28.63;38.79;100868.50;112743;1210;61085;-83
2021/08/24 03:02:16;;;;;;;5.80;4.20;;;;;;;28.64;38.94;100872.81;112817;1211;61182;-86
2021/08/24 03:05:03;;;;;;;5.30;3.90;;;;;;;28.64;38.88;100876.80;112991;1217;63729;-86
2021/08/24 03:07:32;;;;;;;5.90;4.40;;;;;;;28.63;38.97;100873.77;112934;1211;65967;-86
2021/08/24 03:10:03;;;;;;;6.00;4.30;;;;;;;28.63;39.12;100873.58;112987;1218;61596;-89
2021/08/24 03:12:42;;;;;;;5.30;4.20;;;;;;;28.62;38.93;100870.93;112986;1217;61789;-88
2021/08/24 03:15:21;;;;;;;5.70;4.20;;;;;;;28.62;38.98;100871.34;113010;1211;63679;-90
2021/08/24 03:18:17;;;;;;;6.00;4.50;;;;;;;28.62;39.21;100876.58;112997;1217;65773;-88
2021/08/24 03:20:55;;;;;;;5.80;4.50;;;;;;;28.61;39.02;100876.16;112987;1217;60987;-86
2021/08/24 03:23:32;;;;;;;5.50;4.00;;;;;;;28.61;39.04;100872.93;112918;1213;61017;-85
2021/08/24 03:26:07;;;;;;;6.50;4.30;;;;;;;28.60;39.06;100871.30;113004;1211;64666;-85
2021/08/24 03:28:41;;;;;;;5.40;4.20;;;;;;;28.60;38.96;100868.64;112993;1211;65760;-85
2021/08/24 03:31:14;;;;;;;4.90;4.00;;;;;;;28.59;39.06;100866.36;112946;1211;61175;-83
2021/08/24 03:33:46;;;;;;;6.40;4.20;;;;;;;28.59;39.14;100866.94;112990;1217;60990;-86
2021/08/24 03:36:17;;;;;;;5.00;3.90;;;;;;;28.59;39.22;100865.69;112976;1218;64685;-89
2021/08/24 03:39:03;;;;;;;6.60;4.00;;;;;;;28.59;39.14;100865.69;112940;1219;65755;-81
2021/08/24 03:41:29;;;;;;;6.20;4.10;;;;;;;28.58;39.30;100867.58;112955;1218;61118;-84
2021/08/24 03:44:03;;;;;;;6.00;4.20;;;;;;;28.58;39.24;100869.15;112934;1213;60997;-90
2021/08/24 03:46:57;;;;;;;6.40;4.20;;;;;;;28.58;39.30;100864.52;112970;1210;63586;-86
2021/08/24 03:49:31;;;;;;;6.10;4.50;;;;;;;28.58;39.40;100866.69;112979;1217;66705;-85
2021/08/24 03:52:12;;;;;;;7.40;4.00;;;;;;;28.57;39.35;100870.19;112989;1211;60983;-83
2021/08/24 03:54:38;;;;;;;5.50;4.30;;;;;;;28.57;39.39;100873.11;113017;1217;60999;-85
2021/08/24 03:57:14;;;;;;;6.30;4.00;;;;;;;28.57;39.30;100874.70;112991;1217;63544;-90
2021/08/24 03:59:48;;;;;;;5.20;4.20;;;;;;;28.58;39.30;100875.38;112974;1217;66705;-85
2021/08/24 04:02:25;;;;;;;6.30;4.20;;;;;;;28.57;39.34;100876.16;112992;1217;60910;-87
2021/08/24 04:05:02;;;;;;;7.30;4.40;;;;;;;28.57;39.39;100875.08;112955;1211;60956;-88
2021/08/24 04:07:29;;;;;;;6.10;4.10;;;;;;;28.58;39.27;100877.56;112997;1211;63745;-90
2021/08/24 04:10:10;;;;;;;6.20;4.50;;;;;;;28.57;39.37;100886.46;112971;1211;66792;-88
2021/08/24 04:12:38;;;;;;;5.60;4.40;;;;;;;28.57;39.43;100892.98;112964;1218;61009;-88
2021/08/24 04:15:09;;;;;;;5.30;4.30;;;;;;;28.57;39.24;100891.20;112967;1217;60959;-87
2021/08/24 04:18:04;;;;;;;5.90;3.90;;;;;;;28.57;39.42;100892.29;112965;1216;63266;-92
2021/08/24 04:20:36;;;;;;;6.10;4.10;;;;;;;28.57;39.32;100892.69;112967;1211;65582;-85
2021/08/24 04:23:23;;;;;;;6.60;4.50;;;;;;;28.57;39.48;100896.14;112876;1211;61076;-85
2021/08/24 04:26:00;;;;;;;6.10;4.40;;;;;;;28.57;39.40;100892.86;112858;1220;60962;-87
2021/08/24 04:28:37;;;;;;;7.90;4.90;;;;;;;28.57;39.22;100891.94;112975;1219;64817;-90
2021/08/24 04:31:11;;;;;;;9.70;4.80;;;;;;;28.57;39.37;100890.29;112976;1211;75694;-87
2021/08/24 04:33:39;;;;;;;6.90;5.00;;;;;;;28.56;39.34;100889.70;112886;1213;61055;-89
2021/08/24 04:36:14;;;;;;;7.20;4.50;;;;;;;28.55;39.29;100888.49;112988;1217;61098;-89
2021/08/24 04:38:49;;;;;;;7.80;4.80;;;;;;;28.54;39.31;100885.88;112986;1218;63599;-86
2021/08/24 04:41:31;;;;;;;13.90;5.60;;;;;;;28.53;39.19;100882.95;112957;1211;67020;-87
2021/08/24 04:44:00;;;;;;;8.50;4.90;;;;;;;28.52;39.38;100882.27;112987;1212;60984;-88
2021/08/24 04:46:35;;;;;;;8.20;4.70;;;;;;;28.52;39.27;100881.01;112985;1211;61003;-86
2021/08/24 04:49:01;;;;;;;8.40;4.90;;;;;;;28.52;39.20;100876.56;112949;1217;64888;-88
2021/08/24 04:51:49;;;;;;;12.30;5.20;;;;;;;28.51;39.18;100876.42;112955;1217;65759;-84
2021/08/24 04:54:35;;;;;;;9.30;4.30;;;;;;;28.51;39.34;100877.36;113007;1214;61026;-83
2021/08/24 04:57:15;;;;;;;7.20;4.20;;;;;;;28.51;39.23;100876.11;112971;1217;61082;-87
2021/08/24 04:59:46;;;;;;;11.90;4.80;;;;;;;28.51;39.24;100879.74;112920;1216;63956;-87
2021/08/24 05:02:58;;;;;;;8.70;4.90;;;;;;;28.50;39.24;100880.72;112927;1211;66185;-87
2021/08/24 05:05:44;;;;;;;7.10;4.80;;;;;;;28.49;39.35;100888.17;112472;1218;60965;-92
2021/08/24 05:08:10;;;;;;;8.40;4.50;;;;;;;28.49;39.38;100886.95;112331;1223;61091;-83
2021/08/24 05:11:04;;;;;;;9.60;4.70;;;;;;;28.49;39.29;100892.02;112436;1223;63894;-87
2021/08/24 05:13:51;;;;;;;;;;;;;;;;;;;;;
2021/08/24 05:16:20;;;;;;;13.40;5.70;;;;;;;28.49;39.43;100892.72;112103;1219;60998;-86
2021/08/24 05:18:55;;;;;;;8.60;5.10;;;;;;;28.50;39.29;100891.20;112240;1217;61065;-82
2021/08/24 05:21:21;;;;;;;11.30;4.90;;;;;;;28.50;39.38;100893.19;112034;1223;64694;-85
2021/08/24 05:23:47;;;;;;;10.00;4.80;;;;;;;28.51;39.42;100894.38;112118;1218;61030;-85
2021/08/24 05:26:33;;;;;;;9.00;4.70;;;;;;;28.52;39.35;100895.02;112249;1224;60975;-85
2021/08/24 05:28:58;;;;;;;13.20;5.40;;;;;;;28.52;39.30;100897.54;112031;1217;58988;-84
2021/08/24 05:31:33;;;;;;;9.70;5.40;;;;;;;28.51;39.44;100897.02;112215;1217;60971;-87
2021/08/24 05:33:59;;;;;;;9.80;5.10;;;;;;;28.51;39.39;100896.30;112319;1221;74638;-85
2021/08/24 05:36:28;;;;;;;9.30;5.10;;;;;;;28.52;39.21;100897.91;112244;1223;61107;-86
2021/08/24 05:39:04;;;;;;;10.10;5.00;;;;;;;28.52;39.45;100897.20;112202;1217;61311;-86
2021/08/24 05:41:39;;;;;;;9.50;5.10;;;;;;;28.52;39.59;100898.27;112103;1222;64759;-84
2021/08/24 05:44:06;;;;;;;8.80;5.10;;;;;;;28.51;39.47;100895.95;112915;1219;65695;-84
2021/08/24 05:46:32;;;;;;;9.70;5.20;;;;;;;28.52;39.54;100895.90;112933;1219;61035;-84
2021/08/24 05:49:21;;;;;;;10.60;5.30;;;;;;;28.51;39.41;100898.68;112429;1214;60913;-85
2021/08/24 05:51:47;;;;;;;10.10;5.00;;;;;;;28.51;39.34;100896.38;112613;1221;63777;-84
2021/08/24 05:54:27;;;;;;;7.40;4.70;;;;;;;28.51;39.51;100898.02;112634;1215;65793;-87
2021/08/24 05:57:16;;;;;;;13.40;5.20;;;;;;;28.52;39.58;100897.56;112450;1221;62201;-80
2021/08/24 05:59:45;;;;;;;12.20;5.20;;;;;;;28.52;39.40;100897.48;112542;1221;61113;-88
2021/08/24 06:02:23;;;;;;;9.50;5.30;;;;;;;28.53;39.70;100895.64;112681;1220;63472;-83
2021/08/24 06:04:49;;;;;;;11.00;5.60;;;;;;;28.51;39.64;100900.54;112635;1223;66772;-84
2021/08/24 06:07:29;;;;;;;11.70;5.70;;;;;;;28.49;39.50;100903.45;112655;1222;61102;-82
2021/08/24 06:09:55;;;;;;;7.50;5.40;;;;;;;28.47;39.68;100903.35;112751;1219;60990;-86
2021/08/24 06:12:38;;;;;;;8.50;5.10;;;;;;;28.44;39.46;100902.27;112688;1221;61198;-88
2021/08/24 06:15:07;;;;;;;7.50;5.20;;;;;;;28.44;39.60;100904.87;112665;1223;65830;-82
2021/08/24 06:17:39;;;;;;;8.20;5.00;;;;;;;28.43;39.54;100909.81;112494;1215;61025;-84
2021/08/24 06:20:05;;;;;;;;;;;;;;;28.42;39.51;100912.27;112534;1223;60404;-81
2021/08/24 06:22:35;;;;;;;10.10;5.10;;;;;;;28.40;39.69;100914.14;112323;1217;64937;-86
2021/08/24 06:25:06;;;;;;;8.60;4.90;;;;;;;28.38;39.66;100914.30;112307;1222;65756;-82
2021/08/24 06:27:52;;;;;;;13.30;5.50;;;;;;;28.38;39.50;100912.80;112544;1223;60978;-86
2021/08/24 06:30:18;;;;;;;12.90;6.20;;;;;;;28.40;39.37;100912.48;112587;1216;60995;-83
2021/08/24 06:32:50;;;;;;;9.00;5.40;;;;;;;28.41;39.39;100917.23;112511;1217;61238;-83
2021/08/24 06:35:18;;;;;;;9.70;5.10;;;;;;;28.43;39.54;100917.77;112744;1216;65785;-85
2021/08/24 06:37:58;;;;;;;6.90;4.80;;;;;;;28.45;39.51;100915.27;112763;1218;60989;-83
2021/08/24 06:40:24;;;;;;;10.20;4.80;;;;;;;28.46;39.57;100912.65;112742;1219;61181;-82
2021/08/24 06:42:53;;;;;;;8.30;5.30;;;;;;;28.48;39.47;100911.92;112639;1220;61211;-83
2021/08/24 06:45:39;;;;;;;8.80;4.90;;;;;;;28.50;39.54;100913.89;112748;1219;66212;-85
2021/08/24 06:48:16;;;;;;;7.90;5.00;;;;;;;28.51;39.44;100914.84;112729;1219;61016;-84
2021/08/24 06:50:53;;;;;;;7.50;4.90;;;;;;;28.53;39.34;100920.80;112597;1212;61442;-88
2021/08/24 06:53:38;;;;;;;7.50;4.80;;;;;;;28.54;39.35;100919.18;112811;1219;65020;-89
2021/08/24 06:56:12;;;;;;;8.00;4.70;;;;;;;28.55;39.16;100918.74;112776;1212;65821;-87
2021/08/24 06:59:01;;;;;;;;;;;;;;;;;;;;;
2021/08/24 07:01:29;;;;;;;9.10;5.10;;;;;;;28.56;39.14;100920.25;112882;1216;60996;-85
2021/08/24 07:04:00;;;;;;;8.80;4.90;;;;;;;28.57;39.07;100919.31;112820;1218;63592;-84
2021/08/24 07:06:36;;;;;;;8.20;4.60;;;;;;;28.58;39.42;100923.19;112880;1219;60961;-83
2021/08/24 07:09:03;;;;;;;9.00;5.00;;;;;;;28.58;39.14;100924.75;112907;1219;60980;-89
2021/08/24 07:11:36;;;;;;;6.00;4.60;;;;;;;28.58;39.09;100923.88;112842;1221;60946;-85
2021/08/24 07:14:08;;;;;;;8.00;4.50;;;;;;;28.59;39.18;100924.33;112883;1216;63827;-89
2021/08/24 07:16:44;;;;;;;7.10;4.60;;;;;;;28.59;39.06;100925.77;112847;1214;66993;-83
2021/08/24 07:19:10;;;;;;;9.60;5.00;;;;;;;28.59;39.18;100921.96;112788;1211;61025;-84
2021/08/24 07:21:39;;;;;;;7.10;4.20;;;;;;;28.60;38.95;100918.59;112864;1216;61038;-86
2021/08/24 07:24:08;;;;;;;;;;;;;;;28.61;38.97;100919.04;112898;1216;63581;-84
2021/08/24 07:26:55;;;;;;;;;;;;;;;;;;;;;
2021/08/24 07:29:21;;;;;;;9.60;4.80;;;;;;;28.62;39.17;100915.20;112747;1216;58931;-82
2021/08/24 07:31:47;;;;;;;11.50;5.20;;;;;;;28.63;39.11;100917.09;112750;1215;61044;-88
2021/08/24 07:34:13;;;;;;;14.90;5.10;;;;;;;28.63;39.07;100917.95;112853;1211;61000;-83
2021/08/24 07:36:47;;;;;;;13.50;4.90;;;;;;;28.65;39.10;100916.00;112846;1211;60991;-87
2021/08/24 07:39:19;;;;;;;12.80;4.90;;;;;;;28.66;39.18;100915.41;112743;1216;60939;-83
2021/08/24 07:41:44;;;;;;;13.00;4.90;;;;;;;28.66;39.29;100915.14;112671;1219;61010;-85
2021/08/24 07:44:23;;;;;;;10.90;5.10;;;;;;;28.67;39.06;100911.62;112698;1211;61224;-84
2021/08/24 07:46:56;;;;;;;16.20;5.00;;;;;;;28.67;39.10;100907.95;112805;1216;65920;-83
2021/08/24 07:49:22;;;;;;;9.30;5.00;;;;;;;28.68;39.05;100908.02;112840;1216;60960;-83
2021/08/24 07:52:01;;;;;;;13.80;5.10;;;;;;;28.69;39.20;100906.67;112834;1212;61003;-84
2021/08/24 07:54:36;;;;;;;11.50;4.80;;;;;;;28.69;39.27;100901.95;112793;1217;63402;-88
2021/08/24 07:57:02;;;;;;;11.40;4.50;;;;;;;28.70;38.95;100902.64;112853;1211;65579;-82
2021/08/24 07:59:28;;;;;;;9.80;4.80;;;;;;;28.70;39.07;100902.02;112715;1211;61471;-83
2021/08/24 08:01:54;;;;;;;11.10;4.40;;;;;;;28.72;38.83;100900.08;112629;1221;61035;-85
2021/08/24 08:04:27;;;;;;;14.70;4.80;;;;;;;28.72;38.91;100897.70;112843;1216;60942;-83
2021/08/24 08:06:56;;;;;;;10.40;4.40;;;;;;;28.72;38.87;100897.52;112824;1218;66944;-82
2021/08/24 08:09:22;;;;;;;11.30;4.80;;;;;;;28.72;38.86;100898.21;112604;1214;61055;-83
2021/08/24 08:11:49;;;;;;;7.60;4.30;;;;;;;28.73;38.94;100897.42;112770;1211;60982;-84
2021/08/24 08:14:15;;;;;;;8.70;4.40;;;;;;;28.73;38.72;100895.05;112851;1218;61428;-89
2021/08/24 08:16:44;;;;;;;8.20;4.10;;;;;;;28.73;38.71;100893.56;112788;1219;61061;-86
2021/08/24 08:19:13;;;;;;;11.80;4.40;;;;;;;28.73;38.55;100892.86;112801;1212;61141;-86
2021/08/24 08:21:41;;;;;;;6.50;3.90;;;;;;;28.73;38.58;100894.88;112956;1218;61086;-85
2021/08/24 08:24:20;;;;;;;8.60;4.10;;;;;;;28.71;38.24;100891.44;112794;1214;63525;-84
2021/08/24 08:26:45;;;;;;;6.80;4.00;;;;;;;28.69;38.27;100890.34;112662;1211;65513;-83
2021/08/24 08:29:14;;;;;;;6.60;4.00;;;;;;;28.69;38.07;100889.70;112690;1211;61101;-87
2021/08/24 08:31:43;;;;;;;7.90;4.10;;;;;;;28.68;37.58;100888.10;112955;1212;60863;-91
2021/08/24 08:34:10;;;;;;;7.00;3.60;;;;;;;28.68;37.59;100886.19;112926;1217;63635;-83
2021/08/24 08:36:39;;;;;;;5.60;3.80;;;;;;;28.68;37.53;100884.38;112901;1211;65666;-83
2021/08/24 08:39:05;;;;;;;7.30;3.80;;;;;;;28.65;37.18;100881.74;112692;1217;61060;-83
2021/08/24 08:42:04;;;;;;;8.30;3.90;;;;;;;28.63;36.76;100881.60;112912;1217;58948;-83
2021/08/24 08:44:40;;;;;;;7.50;3.90;;;;;;;28.63;36.98;100883.39;112784;1214;63838;-84
2021/08/24 08:47:40;;;;;;;7.80;4.10;;;;;;;28.64;37.10;100883.80;112817;1212;65741;-84
2021/08/24 08:50:46;;;;;;;8.70;3.90;;;;;;;28.65;37.16;100877.95;112902;1217;60942;-85
2021/08/24 08:53:45;;;;;;;6.50;4.10;;;;;;;28.66;37.07;100872.83;112697;1219;61046;-84
2021/08/24 08:56:44;;;;;;;6.40;3.90;;;;;;;28.67;37.16;100874.13;112878;1218;63700;-85
2021/08/24 08:59:32;;;;;;;5.70;3.60;;;;;;;28.68;37.33;100870.23;112662;1221;65550;-87
2021/08/24 09:02:55;;;;;;;;;;;;;;;;;;;;;
2021/08/24 09:05:32;;;;;;;6.50;3.80;;;;;;;28.69;37.30;100868.51;113045;1217;60967;-85
2021/08/24 09:08:07;;;;;;;5.40;3.60;;;;;;;28.69;37.24;100862.30;112989;1214;63852;-86
2021/08/24 09:10:44;;;;;;;8.30;3.80;;;;;;;28.70;37.15;100855.00;112908;1217;65671;-89
2021/08/24 09:13:26;;;;;;;6.80;3.80;;;;;;;28.70;37.16;100853.84;112927;1217;60938;-83
2021/08/24 09:16:10;;;;;;;6.40;3.60;;;;;;;28.71;37.24;100855.21;112710;1211;60970;-82
2021/08/24 09:18:44;;;;;;;7.20;3.90;;;;;;;28.72;37.17;100854.27;112803;1210;63734;-84
2021/08/24 09:21:36;;;;;;;7.20;3.70;;;;;;;28.73;36.97;100852.71;112853;1218;66640;-83
2021/08/24 09:24:29;;;;;;;4.90;3.40;;;;;;;28.73;37.16;100849.42;112897;1211;60942;-85
2021/08/24 09:27:09;;;;;;;5.80;3.50;;;;;;;28.73;36.97;100848.91;112455;1211;60994;-85
2021/08/24 09:29:44;;;;;;;7.70;3.80;;;;;;;28.74;37.02;100848.83;112767;1216;64611;-84
2021/08/24 09:32:13;;;;;;;7.30;3.60;;;;;;;28.74;37.20;100850.42;112864;1214;66947;-85
2021/08/24 09:34:41;;;;;;;5.20;3.80;;;;;;;28.74;36.98;100847.30;112960;1211;61300;-87
2021/08/24 09:37:07;;;;;;;6.90;3.40;;;;;;;28.74;36.78;100846.01;112769;1217;60817;-87
2021/08/24 09:39:57;;;;;;;6.50;3.60;;;;;;;28.75;36.70;100842.88;112735;1212;61028;-86
2021/08/24 09:42:43;;;;;;;8.10;3.90;;;;;;;28.75;36.72;100839.42;112823;1217;65713;-83
2021/08/24 09:45:19;;;;;;;7.40;4.00;;;;;;;28.75;36.84;100841.23;112693;1212;60982;-83
2021/08/24 09:48:06;;;;;;;7.70;3.70;;;;;;;28.76;36.83;100840.06;113035;1217;60935;-89
2021/08/24 09:50:37;;;;;;;5.90;3.80;;;;;;;28.76;36.66;100830.83;112946;1216;63674;-84
2021/08/24 09:53:08;;;;;;;6.60;3.50;;;;;;;28.77;36.62;100827.09;113041;1217;65664;-84
2021/08/24 09:55:49;;;;;;;7.00;3.60;;;;;;;28.77;36.73;100824.59;112946;1212;60988;-81
2021/08/24 09:58:47;;;;;;;6.50;3.90;;;;;;;28.77;36.79;100819.98;112946;1218;61012;-86
2021/08/24 10:01:17;;;;;;;5.80;3.70;;;;;;;28.77;37.01;100817.16;113014;1217;63937;-84
2021/08/24 10:04:34;;;;;;;6.20;3.70;;;;;;;28.77;36.89;100814.95;112962;1213;75577;-87
2021/08/24 10:07:37;;;;;;;6.00;3.50;;;;;;;28.76;36.85;100813.83;112683;1219;60980;-82
2021/08/24 10:10:26;;;;;;;5.70;3.30;;;;;;;28.75;36.84;100810.45;112045;1218;60970;-84
2021/08/24 10:12:52;;;;;;;4.90;3.50;;;;;;;28.76;36.94;100811.27;111897;1224;63598;-83
2021/08/24 10:15:19;;;;;;;7.90;3.90;;;;;;;28.76;36.81;100805.64;111944;1218;60985;-82
2021/08/24 10:17:45;;;;;;;5.10;3.50;;;;;;;28.76;36.59;100804.14;112042;1222;60982;-84
2021/08/24 10:20:33;;;;;;;5.70;3.80;;;;;;;28.77;36.75;100804.80;111980;1219;61126;-85
2021/08/24 10:23:00;;;;;;;5.40;3.30;;;;;;;28.77;36.68;100798.63;111855;1222;73521;-86
2021/08/24 10:25:30;;;;;;;7.00;3.80;;;;;;;28.78;36.56;100803.51;112003;1222;65471;-86
2021/08/24 10:28:19;;;;;;;5.50;3.70;;;;;;;28.77;36.75;100800.79;112039;1222;61026;-83
2021/08/24 10:30:54;;;;;;;6.10;3.60;;;;;;;28.77;36.72;100799.91;112195;1225;61121;-81
2021/08/24 10:33:25;;;;;;;5.80;3.50;;;;;;;28.78;36.69;100798.75;112230;1222;63837;-82
2021/08/24 10:36:12;;;;;;;4.40;3.20;;;;;;;28.79;36.45;100799.60;112169;1222;66919;-82
2021/08/24 10:39:19;;;;;;;6.80;3.60;;;;;;;28.79;36.71;100800.77;111948;1222;61090;-83
2021/08/24 10:42:03;;;;;;;6.30;3.60;;;;;;;28.79;36.62;100798.80;111871;1224;61110;-83
2021/08/24 10:44:31;;;;;;;5.70;3.80;;;;;;;28.79;36.58;100794.96;111991;1217;64038;-84
2021/08/24 10:47:23;;;;;;;7.90;3.70;;;;;;;28.80;36.72;100791.34;112179;1221;65606;-90
2021/08/24 10:49:51;;;;;;;6.80;3.80;;;;;;;28.80;36.66;100783.33;112156;1225;60901;-84
2021/08/24 10:52:48;;;;;;;6.20;3.70;;;;;;;28.81;36.68;100778.36;112010;1219;61037;-85
2021/08/24 10:55:38;;;;;;;5.10;3.70;;;;;;;28.80;36.63;100782.75;112144;1217;64764;-86
2021/08/24 10:58:38;;;;;;;5.90;3.40;;;;;;;28.80;36.80;100778.06;112103;1217;65872;-84
2021/08/24 11:01:20;;;;;;;5.40;3.60;;;;;;;28.80;36.74;100777.71;112085;1217;60962;-81
2021/08/24 11:04:14;;;;;;;5.50;3.40;;;;;;;28.80;36.66;100777.33;112129;1222;61222;-86
2021/08/24 11:07:02;;;;;;;5.60;3.60;;;;;;;28.80;36.67;100779.71;112133;1221;65155;-85
2021/08/24 11:09:50;;;;;;;6.20;4.00;;;;;;;28.80;36.71;100778.30;112146;1219;66819;-86
2021/08/24 11:12:33;;;;;;;5.10;3.50;;;;;;;28.80;36.57;100773.20;112157;1218;61542;-89
2021/08/24 11:15:46;;;;;;;5.10;3.70;;;;;;;28.80;36.64;100773.41;112138;1221;60819;-86
2021/08/24 11:18:36;;;;;;;6.20;3.70;;;;;;;28.80;36.64;100771.59;112394;1218;63743;-85
2021/08/24 11:21:19;;;;;;;7.20;3.50;;;;;;;28.80;36.52;100765.97;112427;1224;66668;-84
2021/08/24 11:23:58;;;;;;;5.10;3.40;;;;;;;28.80;36.76;100767.20;112604;1221;60961;-87
2021/08/24 11:27:03;;;;;;;5.20;3.20;;;;;;;28.81;36.69;100763.66;112548;1214;61686;-87
2021/08/24 11:29:35;;;;;;;5.20;3.50;;;;;;;28.81;36.54;100760.98;111945;1221;64678;-92
2021/08/24 11:32:28;;;;;;;5.70;3.80;;;;;;;28.81;36.39;100760.54;111919;1219;66588;-85
2021/08/24 11:35:01;;;;;;;8.10;3.80;;;;;;;28.82;36.44;100764.10;112047;1225;61034;-86
2021/08/24 11:37:54;;;;;;;6.80;3.30;;;;;;;28.83;36.49;100760.75;112071;1222;60941;-85
2021/08/24 11:40:50;;;;;;;5.90;3.70;;;;;;;28.83;36.47;100762.17;112089;1225;63518;-89
2021/08/24 11:43:22;;;;;;;4.60;3.50;;;;;;;28.83;36.71;100763.42;112055;1219;66809;-89
2021/08/24 11:45:52;;;;;;;5.20;3.70;;;;;;;28.83;36.63;100757.45;112063;1218;61608;-86
2021/08/24 11:48:25;;;;;;;5.70;3.80;;;;;;;28.84;36.77;100753.41;112063;1218;61022;-85
2021/08/24 11:51:29;;;;;;;5.50;3.50;;;;;;;28.84;36.66;100752.88;112028;1219;63851;-89
2021/08/24 11:54:15;;;;;;;6.50;3.40;;;;;;;28.83;36.64;100744.19;112029;1218;65801;-87
2021/08/24 11:57:13;;;;;;;5.60;3.70;;;;;;;28.84;36.60;100747.77;111729;1228;61025;-87
2021/08/24 11:59:57;;;;;;;;;;;;;;;;;;;;;
2021/08/24 12:02:33;;;;;;;5.80;3.70;;;;;;;28.84;36.81;100742.86;111486;1221;64870;-83
2021/08/24 12:05:26;;;;;;;5.50;3.50;;;;;;;28.85;36.82;100740.39;111634;1221;65635;-83
2021/08/24 12:08:07;;;;;;;6.20;3.60;;;;;;;28.86;36.78;100733.30;111887;1225;61050;-87
2021/08/24 12:11:04;;;;;;;;;;;;;;;;;;;;;
2021/08/24 12:13:43;;;;;;;5.90;3.60;;;;;;;28.87;36.78;100731.19;112021;1219;64315;-85
2021/08/24 12:16:24;;;;;;;4.60;3.30;;;;;;;28.87;36.91;100728.24;112063;1217;66952;-86
2021/08/24 12:18:51;;;;;;;4.80;3.60;;;;;;;28.88;36.78;100725.25;111844;1218;60950;-83